createdAt,value
2018-01-04T00:02:04.955Z,7.10
2018-01-04T00:04:31.219Z,7.10
2018-01-04T00:06:57.486Z,7.20
2018-01-04T00:09:23.747Z,7.10
2018-01-04T00:11:50.014Z,7.10
2018-01-04T00:14:16.338Z,7.10
2018-01-04T00:16:43.314Z,7.10
2018-01-04T00:19:09.593Z,7.10
2018-01-04T00:21:35.807Z,7.10
2018-01-04T00:24:02.149Z,7.00
2018-01-04T00:26:28.397Z,7.00
2018-01-04T00:28:55.467Z,7.00
2018-01-04T00:31:21.803Z,6.90
2018-01-04T00:33:48.051Z,6.90
2018-01-04T00:36:14.318Z,6.90
2018-01-04T00:38:41.318Z,6.90
2018-01-04T00:41:07.825Z,6.80
2018-01-04T00:43:34.049Z,6.80
2018-01-04T00:46:01.034Z,6.70
2018-01-04T00:48:27.246Z,6.70
2018-01-04T00:50:53.493Z,6.80
2018-01-04T00:53:19.749Z,6.80
2018-01-04T00:55:45.975Z,6.70
2018-01-04T00:58:12.225Z,6.80
2018-01-04T01:00:39.193Z,6.70
2018-01-04T01:03:05.499Z,6.70
2018-01-04T01:05:32.470Z,6.60
2018-01-04T01:07:58.714Z,6.60
2018-01-04T01:10:25.025Z,6.60
2018-01-04T01:12:51.373Z,6.60
2018-01-04T01:15:17.657Z,6.60
2018-01-04T01:17:43.908Z,6.60
2018-01-04T01:20:10.210Z,6.60
2018-01-04T01:22:36.477Z,6.70
2018-01-04T01:25:02.799Z,6.70
2018-01-04T01:27:29.084Z,6.70
2018-01-04T01:29:56.067Z,6.70
2018-01-04T01:32:23.056Z,6.80
2018-01-04T01:34:49.326Z,6.80
2018-01-04T01:37:16.309Z,6.80
2018-01-04T01:39:42.620Z,6.80
2018-01-04T01:42:08.914Z,6.80
2018-01-04T01:44:35.239Z,6.90
2018-01-04T01:47:02.388Z,6.90
2018-01-04T01:49:28.647Z,6.90
2018-01-04T01:51:55.637Z,7.00
2018-01-04T01:54:21.923Z,7.00
2018-01-04T01:56:48.183Z,7.00
2018-01-04T01:59:14.443Z,6.90
2018-01-04T02:01:40.751Z,6.90
2018-01-04T02:04:07.054Z,6.90
2018-01-04T02:06:33.311Z,7.00
2018-01-04T02:08:59.607Z,7.00
2018-01-04T02:11:25.914Z,6.90
2018-01-04T02:13:52.211Z,6.90
2018-01-04T02:16:20.344Z,6.80
2018-01-04T02:18:58.778Z,6.80
2018-01-04T02:21:37.393Z,6.70
2018-01-04T02:24:16.005Z,6.70
2018-01-04T02:26:54.694Z,6.80
2018-01-04T02:29:33.402Z,6.80
2018-01-04T02:32:12.895Z,6.80
2018-01-04T02:34:51.644Z,6.80
2018-01-04T02:37:30.295Z,6.80
2018-01-04T02:40:09.662Z,6.60
2018-01-04T02:42:48.283Z,6.60
2018-01-04T02:45:26.943Z,6.50
2018-01-04T02:47:53.422Z,6.40
2018-01-04T02:50:19.670Z,6.40
2018-01-04T02:52:46.794Z,6.30
2018-01-04T02:55:13.042Z,6.20
2018-01-04T02:57:39.354Z,6.20
2018-01-04T03:00:05.637Z,6.10
2018-01-04T03:02:31.919Z,6.20
2018-01-04T03:04:58.341Z,6.10
2018-01-04T03:07:24.782Z,6.10
2018-01-04T03:09:51.058Z,6.20
2018-01-04T03:12:18.110Z,6.20
2018-01-04T03:14:44.486Z,6.20
2018-01-04T03:17:10.806Z,6.30
2018-01-04T03:19:37.124Z,6.30
2018-01-04T03:22:10.340Z,6.30
2018-01-04T03:24:42.734Z,6.30
2018-01-04T03:27:15.175Z,6.30
2018-01-04T03:29:41.417Z,6.30
2018-01-04T03:32:13.974Z,6.40
2018-01-04T03:34:46.374Z,6.40
2018-01-04T03:37:19.509Z,6.40
2018-01-04T03:39:52.592Z,6.40
2018-01-04T03:42:25.803Z,6.40
2018-01-04T03:44:58.879Z,6.40
2018-01-04T03:47:31.286Z,6.40
2018-01-04T03:53:10.460Z,6.40
2018-01-04T03:55:42.806Z,6.40
2018-01-04T03:58:09.073Z,6.40
2018-01-04T04:00:41.392Z,6.30
2018-01-04T04:03:07.663Z,6.30
2018-01-04T04:05:40.005Z,6.30
2018-01-04T04:08:12.484Z,6.40
2018-01-04T04:10:38.784Z,6.40
2018-01-04T04:13:05.789Z,6.50
2018-01-04T04:15:32.062Z,6.50
2018-01-04T04:17:59.093Z,6.60
2018-01-04T04:20:25.450Z,6.60
2018-01-04T04:22:51.721Z,6.60
2018-01-04T04:25:18.002Z,6.60
2018-01-04T04:27:44.980Z,6.60
2018-01-04T04:30:11.240Z,6.60
2018-01-04T04:32:37.459Z,6.60
2018-01-04T04:35:03.791Z,6.60
2018-01-04T04:37:30.059Z,6.60
2018-01-04T04:39:56.329Z,6.60
2018-01-04T04:42:22.709Z,6.60
2018-01-04T04:44:48.960Z,6.50
2018-01-04T04:47:15.321Z,6.50
2018-01-04T04:49:41.568Z,6.60
2018-01-04T04:52:07.825Z,6.60
2018-01-04T04:54:34.786Z,6.60
2018-01-04T04:57:01.081Z,6.60
2018-01-04T04:59:27.356Z,6.60
2018-01-04T05:01:53.631Z,6.60
2018-01-04T05:04:19.899Z,6.60
2018-01-04T05:06:46.145Z,6.70
2018-01-04T05:09:12.406Z,6.70
2018-01-04T05:11:38.627Z,6.60
2018-01-04T05:14:04.939Z,6.60
2018-01-04T05:16:31.369Z,6.70
2018-01-04T05:18:57.625Z,6.70
2018-01-04T05:21:23.895Z,6.60
2018-01-04T05:23:50.923Z,6.70
2018-01-04T05:26:17.173Z,6.70
2018-01-04T05:28:43.422Z,6.80
2018-01-04T05:31:10.630Z,6.70
2018-01-04T05:33:36.990Z,6.70
2018-01-04T05:36:03.291Z,6.70
2018-01-04T05:38:29.571Z,6.70
2018-01-04T05:40:55.866Z,6.60
2018-01-04T05:43:22.933Z,6.60
2018-01-04T05:45:49.769Z,6.60
2018-01-04T05:48:17.538Z,6.60
2018-01-04T05:50:43.828Z,6.50
2018-01-04T05:53:10.139Z,6.50
2018-01-04T05:55:36.404Z,6.50
2018-01-04T05:58:03.416Z,6.50
2018-01-04T06:00:29.657Z,6.40
2018-01-04T06:02:55.922Z,6.40
2018-01-04T06:05:22.238Z,6.40
2018-01-04T06:07:49.189Z,6.30
2018-01-04T06:10:16.208Z,6.30
2018-01-04T06:12:42.636Z,6.30
2018-01-04T06:15:09.742Z,6.20
2018-01-04T06:17:36.102Z,6.20
2018-01-04T06:20:02.439Z,6.20
2018-01-04T06:22:28.693Z,6.10
2018-01-04T06:24:55.710Z,6.10
2018-01-04T06:27:22.052Z,6.10
2018-01-04T06:29:48.342Z,6.10
2018-01-04T06:32:15.379Z,6.10
2018-01-04T06:34:41.686Z,6.10
2018-01-04T06:37:08.684Z,6.00
2018-01-04T06:39:34.933Z,6.00
2018-01-04T06:42:02.094Z,6.00
2018-01-04T06:44:29.090Z,6.00
2018-01-04T06:46:55.366Z,6.00
2018-01-04T06:49:21.625Z,6.00
2018-01-04T06:51:48.643Z,5.90
2018-01-04T06:54:15.624Z,5.90
2018-01-04T06:56:41.883Z,5.80
2018-01-04T06:59:08.088Z,5.90
2018-01-04T07:01:35.191Z,5.90
2018-01-04T07:04:01.511Z,5.80
2018-01-04T07:06:27.810Z,5.90
2018-01-04T07:09:01.168Z,5.90
2018-01-04T07:11:27.485Z,5.90
2018-01-04T07:13:54.510Z,6.00
2018-01-04T07:16:20.766Z,6.00
2018-01-04T07:18:47.781Z,6.00
2018-01-04T07:21:14.052Z,6.00
2018-01-04T07:23:40.355Z,6.00
2018-01-04T07:26:06.615Z,6.00
2018-01-04T07:28:32.898Z,6.00
2018-01-04T07:30:59.180Z,6.10
2018-01-04T07:33:25.435Z,6.10
2018-01-04T07:35:51.777Z,6.10
2018-01-04T07:38:18.009Z,6.10
2018-01-04T07:40:44.355Z,6.20
2018-01-04T07:43:10.662Z,6.20
2018-01-04T07:45:36.986Z,6.20
2018-01-04T07:48:03.238Z,6.20
2018-01-04T07:50:29.488Z,6.30
2018-01-04T07:52:55.835Z,6.30
2018-01-04T07:55:22.130Z,6.30
2018-01-04T07:57:48.398Z,6.30
2018-01-04T08:00:14.666Z,6.30
2018-01-04T08:02:40.978Z,6.30
2018-01-04T08:05:07.244Z,6.30
2018-01-04T08:07:33.650Z,6.40
2018-01-04T08:10:00.082Z,6.40
2018-01-04T08:12:26.339Z,6.40
2018-01-04T08:14:52.658Z,6.40
2018-01-04T08:17:19.698Z,6.50
2018-01-04T08:19:46.039Z,6.50
2018-01-04T08:22:12.314Z,6.50
2018-01-04T08:24:38.588Z,6.50
2018-01-04T08:27:04.855Z,6.50
2018-01-04T08:29:31.178Z,6.50
2018-01-04T08:31:58.259Z,6.60
2018-01-04T08:34:24.737Z,6.50
2018-01-04T08:36:51.097Z,6.60
2018-01-04T08:39:17.409Z,6.50
2018-01-04T08:41:43.743Z,6.50
2018-01-04T08:44:10.734Z,6.60
2018-01-04T08:46:36.977Z,6.50
2018-01-04T08:49:03.280Z,6.60
2018-01-04T08:51:29.561Z,6.60
2018-01-04T08:53:56.674Z,6.60
2018-01-04T08:56:22.962Z,6.60
2018-01-04T08:58:49.256Z,6.60
2018-01-04T09:01:15.631Z,6.60
2018-01-04T09:03:41.973Z,6.60
2018-01-04T09:06:08.314Z,6.70
2018-01-04T09:08:34.625Z,6.60
2018-01-04T09:11:00.952Z,6.70
2018-01-04T09:13:27.252Z,6.70
2018-01-04T09:15:53.536Z,6.80
2018-01-04T09:18:19.792Z,6.80
2018-01-04T09:20:46.059Z,6.80
2018-01-04T09:23:12.405Z,6.90
2018-01-04T09:25:38.693Z,6.90
2018-01-04T09:28:04.915Z,7.10
2018-01-04T09:30:31.195Z,7.10
2018-01-04T09:32:57.544Z,7.10
2018-01-04T09:35:23.837Z,7.10
2018-01-04T09:37:50.139Z,7.10
2018-01-04T09:40:17.077Z,7.00
2018-01-04T09:42:43.415Z,7.00
2018-01-04T09:45:09.682Z,6.90
2018-01-04T09:47:36.737Z,7.00
2018-01-04T09:50:03.081Z,7.00
2018-01-04T09:52:31.330Z,7.00
2018-01-04T09:54:57.629Z,7.00
2018-01-04T09:57:24.004Z,7.00
2018-01-04T09:59:50.598Z,7.10
2018-01-04T10:02:16.789Z,7.10
2018-01-04T10:04:43.867Z,7.10
2018-01-04T10:07:10.986Z,7.20
2018-01-04T10:09:37.357Z,7.20
2018-01-04T10:12:03.644Z,7.20
2018-01-04T10:14:29.974Z,7.20
2018-01-04T10:16:56.712Z,7.20
2018-01-04T10:19:23.004Z,7.20
2018-01-04T10:21:50.060Z,7.20
2018-01-04T10:24:16.405Z,7.20
2018-01-04T10:26:42.700Z,7.30
2018-01-04T10:29:09.678Z,7.40
2018-01-04T10:31:42.738Z,7.40
2018-01-04T10:34:09.083Z,7.50
2018-01-04T10:36:35.424Z,7.40
2018-01-04T10:39:01.937Z,7.50
2018-01-04T10:41:28.451Z,7.50
2018-01-04T10:43:56.337Z,7.50
2018-01-04T10:46:22.690Z,7.40
2018-01-04T10:48:49.076Z,7.50
2018-01-04T10:51:15.418Z,7.50
2018-01-04T10:53:42.081Z,7.60
2018-01-04T10:56:08.657Z,7.60
2018-01-04T10:58:35.542Z,7.60
2018-01-04T11:01:02.311Z,7.50
2018-01-04T11:03:28.721Z,7.50
2018-01-04T11:05:55.065Z,7.50
2018-01-04T11:08:21.736Z,7.60
2018-01-04T11:10:48.208Z,7.60
2018-01-04T11:13:14.814Z,7.60
2018-01-04T11:15:42.435Z,7.50
2018-01-04T11:18:08.823Z,7.60
2018-01-04T11:20:35.858Z,7.50
2018-01-04T11:23:02.233Z,7.50
2018-01-04T11:25:28.593Z,7.60
2018-01-04T11:27:54.999Z,7.60
2018-01-04T11:30:21.417Z,7.50
2018-01-04T11:32:48.429Z,7.60
2018-01-04T11:35:14.736Z,7.60
2018-01-04T11:37:41.089Z,7.60
2018-01-04T11:40:07.460Z,7.60
2018-01-04T11:42:34.170Z,7.60
2018-01-04T11:45:01.448Z,7.70
2018-01-04T11:47:27.826Z,7.60
2018-01-04T11:49:54.132Z,7.70
2018-01-04T11:52:20.646Z,7.80
2018-01-04T11:54:47.805Z,7.80
2018-01-04T11:57:14.069Z,7.80
2018-01-04T11:59:40.362Z,7.80
2018-01-04T12:02:06.723Z,7.80
2018-01-04T12:04:33.031Z,7.70
2018-01-04T12:07:00.442Z,7.70
2018-01-04T12:09:27.562Z,7.80
2018-01-04T12:11:53.883Z,7.80
2018-01-04T12:14:20.208Z,7.80
2018-01-04T12:16:46.558Z,7.80
2018-01-04T12:19:12.893Z,7.80
2018-01-04T12:21:39.142Z,7.80
2018-01-04T12:24:05.452Z,7.80
2018-01-04T12:26:31.874Z,7.80
2018-01-04T12:28:58.418Z,7.80
2018-01-04T12:31:24.645Z,7.90
2018-01-04T12:33:50.927Z,7.90
2018-01-04T12:36:17.810Z,7.90
2018-01-04T12:38:44.147Z,7.90
2018-01-04T12:41:10.441Z,7.90
2018-01-04T12:43:36.859Z,7.80
2018-01-04T12:46:03.133Z,7.80
2018-01-04T12:48:29.480Z,7.80
2018-01-04T12:50:55.831Z,7.80
2018-01-04T12:53:22.952Z,7.80
2018-01-04T12:55:49.399Z,7.80
2018-01-04T12:58:16.611Z,7.70
2018-01-04T13:00:42.954Z,7.70
2018-01-04T13:03:10.035Z,7.70
2018-01-04T13:05:37.368Z,7.70
2018-01-04T13:08:03.884Z,7.70
2018-01-04T13:10:30.232Z,7.60
2018-01-04T13:12:56.576Z,7.60
2018-01-04T13:15:23.057Z,7.60
2018-01-04T13:17:49.319Z,7.50
2018-01-04T13:20:15.561Z,7.60
2018-01-04T13:22:42.049Z,7.50
2018-01-04T13:25:08.485Z,7.60
2018-01-04T13:27:34.862Z,7.50
2018-01-04T13:30:01.982Z,7.60
2018-01-04T13:32:28.598Z,7.60
2018-01-04T13:34:55.301Z,7.60
2018-01-04T13:37:21.725Z,7.60
2018-01-04T13:39:48.942Z,7.60
2018-01-04T13:42:15.310Z,7.60
2018-01-04T13:44:42.488Z,7.70
2018-01-04T13:47:09.938Z,7.60
2018-01-04T13:49:36.238Z,7.60
2018-01-04T13:52:03.344Z,7.50
2018-01-04T13:54:29.812Z,7.50
2018-01-04T13:56:56.949Z,7.40
2018-01-04T13:59:23.336Z,7.40
2018-01-04T14:01:49.770Z,7.30
2018-01-04T14:04:16.079Z,7.40
2018-01-04T14:06:42.481Z,7.40
2018-01-04T14:09:08.831Z,7.30
2018-01-04T14:11:35.987Z,7.30
2018-01-04T14:14:03.167Z,7.30
2018-01-04T14:16:29.595Z,7.30
2018-01-04T14:18:55.944Z,7.30
2018-01-04T14:21:22.276Z,7.30
2018-01-04T14:23:48.632Z,7.30
2018-01-04T14:26:15.033Z,7.30
2018-01-04T14:28:41.433Z,7.30
2018-01-04T14:31:08.595Z,7.30
2018-01-04T14:33:34.979Z,7.30
2018-01-04T14:36:01.355Z,7.30
2018-01-04T14:38:27.702Z,7.30
2018-01-04T14:40:53.956Z,7.20
2018-01-04T14:43:20.639Z,7.20
2018-01-04T14:45:47.023Z,7.10
2018-01-04T14:48:13.360Z,7.00
2018-01-04T14:50:39.648Z,7.00
2018-01-04T14:53:06.240Z,7.00
2018-01-04T14:55:32.725Z,7.00
2018-01-04T14:57:59.051Z,7.00
2018-01-04T15:00:25.442Z,7.00
2018-01-04T15:02:51.697Z,7.00
2018-01-04T15:05:18.718Z,7.00
2018-01-04T15:07:45.810Z,7.00
2018-01-04T15:10:12.250Z,7.00
2018-01-04T15:12:38.545Z,7.00
2018-01-04T15:15:05.595Z,7.00
2018-01-04T15:17:31.881Z,7.00
2018-01-04T15:19:59.137Z,7.00
2018-01-04T15:22:26.463Z,7.00
2018-01-04T15:24:52.963Z,6.90
2018-01-04T15:27:19.298Z,6.90
2018-01-04T15:29:45.627Z,6.80
2018-01-04T15:32:12.088Z,6.80
2018-01-04T15:34:38.785Z,6.80
2018-01-04T15:37:05.106Z,6.80
2018-01-04T15:39:32.165Z,6.70
2018-01-04T15:41:59.198Z,6.60
2018-01-04T15:44:25.633Z,6.60
2018-01-04T15:46:52.665Z,6.60
2018-01-04T15:49:19.063Z,6.60
2018-01-04T15:51:45.431Z,6.60
2018-01-04T15:54:11.808Z,6.50
2018-01-04T15:56:39.441Z,6.50
2018-01-04T15:59:05.793Z,6.50
2018-01-04T16:01:32.825Z,6.40
2018-01-04T16:03:59.839Z,6.40
2018-01-04T16:06:26.138Z,6.30
2018-01-04T16:08:52.434Z,6.30
2018-01-04T16:11:19.438Z,6.30
2018-01-04T16:13:45.833Z,6.30
2018-01-04T16:16:12.330Z,6.30
2018-01-04T16:18:38.638Z,6.30
2018-01-04T16:21:04.898Z,6.30
2018-01-04T16:23:31.910Z,6.30
2018-01-04T16:25:59.090Z,6.30
2018-01-04T16:28:26.097Z,6.30
2018-01-04T16:30:52.432Z,6.20
2018-01-04T16:33:18.737Z,6.30
2018-01-04T16:35:45.041Z,6.30
2018-01-04T16:38:12.027Z,6.30
2018-01-04T16:40:38.281Z,6.30
2018-01-04T16:43:04.538Z,6.30
2018-01-04T16:45:30.917Z,6.40
2018-01-04T16:47:58.772Z,6.40
2018-01-04T16:50:25.268Z,6.40
2018-01-04T16:52:52.320Z,6.30
2018-01-04T16:55:18.674Z,6.30
2018-01-04T16:57:44.979Z,6.30
2018-01-04T17:00:11.312Z,6.30
2018-01-04T17:02:37.695Z,6.40
2018-01-04T17:05:03.989Z,6.30
2018-01-04T17:07:30.296Z,6.30
2018-01-04T17:10:03.673Z,6.30
2018-01-04T17:12:30.755Z,6.30
2018-01-04T17:14:57.770Z,6.30
2018-01-04T17:17:24.139Z,6.40
2018-01-04T17:19:50.820Z,6.30
2018-01-04T17:22:18.191Z,6.30
2018-01-04T17:24:44.469Z,6.30
2018-01-04T17:27:11.466Z,6.40
2018-01-04T17:29:39.575Z,6.40
2018-01-04T17:32:06.206Z,6.30
2018-01-04T17:34:32.680Z,6.30
2018-01-04T17:36:58.966Z,6.30
2018-01-04T17:39:25.591Z,6.30
2018-01-04T17:41:51.879Z,6.30
2018-01-04T17:44:18.266Z,6.30
2018-01-04T17:46:44.636Z,6.30
2018-01-04T17:49:11.067Z,6.30
2018-01-04T17:51:37.477Z,6.30
2018-01-04T17:54:03.825Z,6.30
2018-01-04T17:56:30.107Z,6.30
2018-01-04T17:58:57.200Z,6.30
2018-01-04T18:01:23.541Z,6.30
2018-01-04T18:03:49.817Z,6.30
2018-01-04T18:06:17.039Z,6.30
2018-01-04T18:08:45.050Z,6.30
2018-01-04T18:11:11.977Z,6.30
2018-01-04T18:13:39.799Z,6.30
2018-01-04T18:16:08.135Z,6.30
2018-01-04T18:18:34.563Z,6.30
2018-01-04T18:21:02.040Z,6.30
2018-01-04T18:23:28.601Z,6.30
2018-01-04T18:25:55.105Z,6.40
2018-01-04T18:28:21.545Z,6.40
2018-01-04T18:30:48.041Z,6.40
2018-01-04T18:33:15.339Z,6.40
2018-01-04T18:38:17.582Z,6.40
2018-01-04T18:40:44.744Z,6.40
2018-01-04T18:43:12.896Z,6.30
2018-01-04T18:45:39.401Z,6.40
2018-01-04T18:48:06.012Z,6.30
2018-01-04T18:50:32.921Z,6.30
2018-01-04T18:52:59.406Z,6.30
2018-01-04T18:55:25.826Z,6.30
2018-01-04T18:57:52.119Z,6.40
2018-01-04T19:00:18.452Z,6.40
2018-01-04T19:02:45.497Z,6.30
2018-01-04T19:05:12.579Z,6.40
2018-01-04T19:07:38.865Z,6.30
2018-01-04T19:10:05.227Z,6.40
2018-01-04T19:12:31.567Z,6.40
2018-01-04T19:14:57.932Z,6.40
2018-01-04T19:17:24.290Z,6.30
2018-01-04T19:19:51.318Z,6.40
2018-01-04T19:22:17.696Z,6.40
2018-01-04T19:24:43.977Z,6.40
2018-01-04T19:27:10.382Z,6.40
2018-01-04T19:29:36.750Z,6.40
2018-01-04T19:32:03.758Z,6.40
2018-01-04T19:34:30.231Z,6.40
2018-01-04T19:36:57.242Z,6.40
2018-01-04T19:39:23.607Z,6.40
2018-01-04T19:41:50.002Z,6.40
2018-01-04T19:44:17.129Z,6.40
2018-01-04T19:46:43.537Z,6.40
2018-01-04T19:49:09.835Z,6.40
2018-01-04T19:51:36.238Z,6.40
2018-01-04T19:54:02.666Z,6.40
2018-01-04T19:56:29.039Z,6.40
2018-01-04T19:58:55.527Z,6.40
2018-01-04T20:01:22.778Z,6.40
2018-01-04T20:03:49.215Z,6.40
2018-01-04T20:06:16.488Z,6.40
2018-01-04T20:08:42.886Z,6.40
2018-01-04T20:11:09.256Z,6.40
2018-01-04T20:13:35.887Z,6.40
2018-01-04T20:16:02.238Z,6.50
2018-01-04T20:18:28.712Z,6.40
2018-01-04T20:20:55.014Z,6.40
2018-01-04T20:23:22.059Z,6.40
2018-01-04T20:25:49.710Z,6.40
2018-01-04T20:28:16.088Z,6.40
2018-01-04T20:30:42.404Z,6.40
2018-01-04T20:33:09.459Z,6.40
2018-01-04T20:35:35.825Z,6.40
2018-01-04T20:38:02.146Z,6.40
2018-01-04T20:40:29.278Z,6.40
2018-01-04T20:42:56.518Z,6.30
2018-01-04T20:45:22.794Z,6.30
2018-01-04T20:47:49.274Z,6.30
2018-01-04T20:50:16.952Z,6.30
2018-01-04T20:52:43.498Z,6.30
2018-01-04T20:55:09.861Z,6.30
2018-01-04T20:57:36.902Z,6.30
2018-01-04T21:00:03.223Z,6.20
2018-01-04T21:02:29.595Z,6.20
2018-01-04T21:04:56.605Z,6.20
2018-01-04T21:07:22.974Z,6.20
2018-01-04T21:09:50.059Z,6.20
2018-01-04T21:12:16.339Z,6.20
2018-01-04T21:14:44.117Z,6.20
2018-01-04T21:17:11.369Z,6.20
2018-01-04T21:19:37.846Z,6.20
2018-01-04T21:22:04.252Z,6.20
2018-01-04T21:24:30.645Z,6.20
2018-01-04T21:26:59.300Z,6.20
2018-01-04T21:29:26.079Z,6.20
2018-01-04T21:31:53.451Z,6.10
2018-01-04T21:34:21.326Z,6.10
2018-01-04T21:36:49.977Z,6.10
2018-01-04T21:39:16.316Z,6.10
2018-01-04T21:41:43.569Z,6.00
2018-01-04T21:44:10.768Z,6.00
2018-01-04T21:46:37.227Z,6.00
2018-01-04T21:49:03.669Z,6.10
2018-01-04T21:51:31.735Z,6.10
2018-01-04T21:53:58.070Z,6.00
2018-01-04T21:56:25.150Z,6.00
2018-01-04T21:58:52.212Z,6.10
2018-01-04T22:01:18.567Z,6.10
2018-01-04T22:03:44.897Z,6.10
2018-01-04T22:06:11.242Z,6.10
2018-01-04T22:08:37.557Z,6.10
2018-01-04T22:11:03.856Z,6.10
2018-01-04T22:13:30.170Z,6.10
2018-01-04T22:15:57.759Z,6.10
2018-01-04T22:18:24.374Z,6.10
2018-01-04T22:20:50.857Z,6.20
2018-01-04T22:23:17.996Z,6.20
2018-01-04T22:25:45.093Z,6.20
2018-01-04T22:28:12.586Z,6.20
2018-01-04T22:30:38.866Z,6.20
2018-01-04T22:33:06.131Z,6.30
2018-01-04T22:35:33.189Z,6.30
2018-01-04T22:37:59.726Z,6.30
2018-01-04T22:40:26.075Z,6.30
2018-01-04T22:42:52.417Z,6.30
2018-01-04T22:45:18.771Z,6.30
2018-01-04T22:47:45.086Z,6.30
2018-01-04T22:50:11.383Z,6.30
2018-01-04T22:52:37.641Z,6.30
2018-01-04T22:55:03.950Z,6.30
2018-01-04T22:57:30.229Z,6.40
2018-01-04T22:59:56.583Z,6.40
2018-01-04T23:02:22.930Z,6.40
2018-01-04T23:04:49.226Z,6.40
2018-01-04T23:07:16.376Z,6.40
2018-01-04T23:09:43.389Z,6.50
2018-01-04T23:12:09.754Z,6.50
2018-01-04T23:14:36.094Z,6.50
2018-01-04T23:17:02.495Z,6.50
2018-01-04T23:19:29.527Z,6.60
2018-01-04T23:21:56.609Z,6.60
2018-01-04T23:24:23.328Z,6.60
2018-01-04T23:26:49.634Z,6.60
2018-01-04T23:29:15.967Z,6.60
2018-01-04T23:31:42.236Z,6.60
2018-01-04T23:34:08.535Z,6.50
2018-01-04T23:36:34.768Z,6.50
2018-01-04T23:39:01.098Z,6.50
2018-01-04T23:41:27.502Z,6.60
2018-01-04T23:43:53.807Z,6.60
2018-01-04T23:46:20.804Z,6.60
2018-01-04T23:48:47.134Z,6.60
2018-01-04T23:51:13.435Z,6.70
2018-01-04T23:53:39.715Z,6.70
2018-01-04T23:56:06.401Z,6.70
2018-01-04T23:58:32.741Z,6.80
